Time;durP1;ratioP1;P1;durP2;ratioP2;P2;SDS_P1;SDS_P2;PMS_P1;PMS_P2;Temp;Humidity;BMP_temperature;BMP_pressure;BME280_temperature;BME280_humidity;BME280_pressure;Samples;Min_cycle;Max_cycle;Signal;HPM_P1;HPM_P2
2023/02/16 00:02:15;;;;;;;19.50;17.50;;;4.40;99.90;;;;;;10497397;28;20558;-79
2023/02/16 00:07:18;;;;;;;19.83;17.43;;;4.60;99.90;;;;;;10493267;28;20208;-79
2023/02/16 00:17:41;;;;;;;18.10;16.30;;;4.60;99.90;;;;;;10456941;28;20235;-78
2023/02/16 00:22:44;;;;;;;18.53;16.57;;;4.50;99.90;;;;;;10471491;28;20196;-77
2023/02/16 00:27:47;;;;;;;20.40;18.00;;;4.40;99.90;;;;;;10493728;28;20753;-78
2023/02/16 00:32:50;;;;;;;18.03;15.70;;;4.30;99.90;;;;;;10464957;28;20662;-78
2023/02/16 00:37:52;;;;;;;19.60;17.60;;;4.40;99.90;;;;;;10481749;28;20297;-77
2023/02/16 00:42:55;;;;;;;17.90;16.10;;;4.40;99.90;;;;;;10465164;28;20564;-79
2023/02/16 00:47:58;;;;;;;17.03;15.37;;;4.40;99.90;;;;;;10437764;28;20265;-77
2023/02/16 00:53:01;;;;;;;15.70;14.20;;;4.40;99.90;;;;;;10465823;28;20202;-77
2023/02/16 00:58:08;;;;;;;19.10;15.47;;;4.40;99.90;;;;;;10492050;28;20211;-77
2023/02/16 01:03:14;;;;;;;17.97;14.83;;;4.40;99.90;;;;;;10472432;28;20202;-77
2023/02/16 01:13:44;;;;;;;18.47;16.43;;;4.40;99.90;;;;;;10476709;28;20198;-78
2023/02/16 01:18:46;;;;;;;17.30;15.43;;;4.30;99.90;;;;;;10498018;28;20730;-77
2023/02/16 01:23:48;;;;;;;17.87;15.97;;;4.40;99.90;;;;;;10487999;28;20204;-77
2023/02/16 01:28:52;;;;;;;16.83;15.10;;;4.30;99.50;;;;;;10465033;28;20220;-77
2023/02/16 01:33:56;;;;;;;17.67;15.90;;;4.20;99.90;;;;;;10474446;28;20285;-78
2023/02/16 01:38:59;;;;;;;20.00;17.70;;;4.10;99.90;;;;;;10499595;28;20589;-78
2023/02/16 01:44:05;;;;;;;15.97;14.27;;;4.10;99.90;;;;;;10446076;28;20230;-77
2023/02/16 01:49:12;;;;;;;18.30;15.90;;;4.20;99.70;;;;;;10460873;28;20204;-78
2023/02/16 01:54:37;;;;;;;53.13;36.20;;;4.10;99.80;;;;;;10462013;28;20175;-78
2023/02/16 02:00:16;;;;;;;17.20;15.53;;;4.00;99.90;;;;;;10483892;28;20234;-78
2023/02/16 02:05:35;;;;;;;15.57;13.93;;;4.10;99.80;;;;;;10472076;28;20216;-79
2023/02/16 02:10:48;;;;;;;18.10;14.50;;;4.00;99.90;;;;;;10460127;28;21059;-77
2023/02/16 02:15:53;;;;;;;25.90;19.97;;;3.90;99.90;;;;;;10467909;28;20756;-79
2023/02/16 02:27:08;;;;;;;17.87;15.80;;;3.90;99.90;;;;;;10470069;28;20221;-77
2023/02/16 02:32:25;;;;;;;14.00;12.70;;;4.00;99.90;;;;;;10447926;28;20314;-78
2023/02/16 02:37:37;;;;;;;15.57;13.80;;;4.00;99.60;;;;;;10469144;28;20615;-78
2023/02/16 02:42:48;;;;;;;30.40;22.00;;;3.80;99.90;;;;;;10457869;28;20684;-77
2023/02/16 02:47:53;;;;;;;15.27;13.57;;;3.80;99.90;;;;;;10484952;28;20268;-78
2023/02/16 02:52:58;;;;;;;16.07;13.63;;;3.70;99.90;;;;;;10494053;28;20284;-77
2023/02/16 03:03:29;;;;;;;14.77;13.27;;;3.70;99.90;;;;;;10479459;28;20204;-76
2023/02/16 03:08:35;;;;;;;12.83;11.60;;;3.70;99.90;;;;;;10458332;28;20216;-79
2023/02/16 03:13:42;;;;;;;16.60;12.47;;;3.70;99.90;;;;;;10458961;28;20200;-77
2023/02/16 03:29:35;;;;;;;12.37;11.13;;;3.70;99.90;;;;;;10477273;28;20292;-78
2023/02/16 03:34:37;;;;;;;12.47;11.27;;;3.60;99.90;;;;;;10491003;28;20190;-79
2023/02/16 03:44:57;;;;;;;12.30;11.10;;;3.70;99.90;;;;;;10494009;28;20190;-77
2023/02/16 03:49:59;;;;;;;13.33;12.10;;;3.70;99.90;;;;;;10482994;28;20206;-77
2023/02/16 03:55:01;;;;;;;13.43;12.03;;;3.70;99.80;;;;;;10492081;28;20263;-78
2023/02/16 04:00:05;;;;;;;12.77;11.50;;;3.60;99.90;;;;;;10478720;28;20249;-78
2023/02/16 04:05:15;;;;;;;17.00;12.50;;;3.60;99.90;;;;;;10463673;28;20205;-78
2023/02/16 04:10:17;;;;;;;13.30;12.10;;;3.60;99.90;;;;;;10467111;28;20569;-78
2023/02/16 04:15:22;;;;;;;13.70;12.33;;;3.70;99.90;;;;;;10493853;28;20304;-78
2023/02/16 04:20:27;;;;;;;13.67;12.37;;;3.80;99.90;;;;;;10482812;28;20186;-77
2023/02/16 04:25:30;;;;;;;14.40;13.00;;;3.80;99.90;;;;;;10457041;28;20205;-78
2023/02/16 04:30:33;;;;;;;13.87;12.47;;;3.80;99.90;;;;;;10465994;28;20189;-78
2023/02/16 04:35:35;;;;;;;14.37;12.87;;;3.80;99.90;;;;;;10490469;28;20218;-77
2023/02/16 04:40:37;;;;;;;14.47;12.87;;;3.80;99.90;;;;;;10480773;28;20206;-78
2023/02/16 04:45:40;;;;;;;13.87;12.47;;;3.70;99.90;;;;;;10454793;28;20577;-78
2023/02/16 04:50:42;;;;;;;13.30;12.10;;;3.60;99.90;;;;;;10463143;28;20293;-78
2023/02/16 04:55:46;;;;;;;13.63;12.43;;;3.60;99.90;;;;;;10493055;28;20252;-78
2023/02/16 05:00:49;;;;;;;14.80;12.70;;;3.70;99.90;;;;;;10483189;28;20189;-78
2023/02/16 05:05:51;;;;;;;14.57;12.30;;;3.70;99.90;;;;;;10485756;28;20305;-77
2023/02/16 05:16:11;;;;;;;22.93;17.93;;;3.80;99.90;;;;;;10453751;28;20253;-78
2023/02/16 05:21:32;;;;;;;49.20;35.87;;;3.70;99.90;;;;;;10458718;28;20208;-76
2023/02/16 05:26:34;;;;;;;17.90;14.90;;;3.50;99.90;;;;;;10482505;28;20859;-77
2023/02/16 05:31:38;;;;;;;15.20;13.63;;;3.50;99.90;;;;;;10458296;28;20189;-77
2023/02/16 05:36:41;;;;;;;11.70;10.50;;;3.50;99.90;;;;;;10490087;28;20207;-80
2023/02/16 05:41:43;;;;;;;12.43;11.23;;;3.60;99.90;;;;;;10488728;28;20204;-77
2023/02/16 05:46:47;;;;;;;12.53;11.30;;;3.60;99.90;;;;;;10488912;28;20297;-77
2023/02/16 05:51:49;;;;;;;13.00;11.70;;;3.50;99.90;;;;;;10489781;28;20551;-77
2023/02/16 05:56:52;;;;;;;12.70;11.40;;;3.60;99.90;;;;;;10483268;28;20316;-78
2023/02/16 06:01:55;;;;;;;13.93;12.50;;;3.50;99.90;;;;;;10500890;28;20232;-79
2023/02/16 06:06:58;;;;;;;14.03;12.73;;;3.40;99.90;;;;;;10497714;28;20580;-80
2023/02/16 06:12:00;;;;;;;14.73;12.80;;;3.40;99.90;;;;;;10499336;28;20209;-79
2023/02/16 06:17:04;;;;;;;14.87;13.37;;;3.40;99.90;;;;;;10478290;28;20283;-79
2023/02/16 06:22:06;;;;;;;15.00;13.40;;;3.40;99.90;;;;;;10457825;28;20225;-76
2023/02/16 06:27:08;;;;;;;19.10;12.93;;;3.40;99.90;;;;;;10497791;28;20744;-78
2023/02/16 06:32:11;;;;;;;14.40;12.47;;;3.50;99.90;;;;;;10498537;28;20197;-78
2023/02/16 06:37:13;;;;;;;15.50;13.07;;;3.50;99.90;;;;;;10464300;28;20716;-79
2023/02/16 06:42:15;;;;;;;14.53;12.50;;;3.50;99.90;;;;;;10471021;28;20564;-78
2023/02/16 06:47:19;;;;;;;15.67;12.80;;;3.50;99.90;;;;;;10495874;28;20215;-78
2023/02/16 06:52:21;;;;;;;15.37;12.47;;;3.50;99.90;;;;;;10496774;28;20555;-78
2023/02/16 06:57:23;;;;;;;13.63;11.47;;;3.50;99.90;;;;;;10456204;28;20230;-78
2023/02/16 07:02:26;;;;;;;15.17;13.50;;;3.60;99.90;;;;;;10464991;28;20590;-77
2023/02/16 07:07:29;;;;;;;15.13;13.63;;;3.50;99.90;;;;;;10459470;28;20206;-78
2023/02/16 07:12:31;;;;;;;14.80;13.00;;;3.50;99.90;;;;;;10458780;28;20197;-78
2023/02/16 07:17:35;;;;;;;27.63;19.10;;;3.60;99.90;;;;;;10490712;28;20229;-77
2023/02/16 07:22:37;;;;;;;14.40;13.00;;;3.50;99.90;;;;;;10495782;28;20210;-79
2023/02/16 07:27:39;;;;;;;15.97;14.27;;;3.60;99.90;;;;;;10463109;28;20293;-78
2023/02/16 07:32:42;;;;;;;15.63;14.03;;;3.70;99.90;;;;;;10457955;28;20281;-78
2023/02/16 07:37:44;;;;;;;16.80;15.03;;;3.70;99.90;;;;;;10488128;28;20215;-78
2023/02/16 07:42:46;;;;;;;17.30;14.80;;;3.80;99.90;;;;;;10492719;28;20586;-77
2023/02/16 07:47:50;;;;;;;18.80;16.63;;;3.90;99.90;;;;;;10468560;28;20569;-78
2023/02/16 07:52:52;;;;;;;17.37;15.57;;;3.90;99.90;;;;;;10458502;28;20287;-78
2023/02/16 07:57:56;;;;;;;18.20;15.07;;;4.00;99.90;;;;;;10483877;28;20318;-78
2023/02/16 08:03:00;;;;;;;17.30;14.67;;;4.10;99.90;;;;;;10472848;28;20258;-78
2023/02/16 08:08:02;;;;;;;17.90;16.00;;;4.10;99.90;;;;;;10483583;28;20298;-79
2023/02/16 08:13:05;;;;;;;18.27;16.13;;;4.20;99.90;;;;;;10489734;28;20249;-78
2023/02/16 08:18:08;;;;;;;19.47;17.37;;;4.30;99.90;;;;;;10553531;22;20742;-79
2023/02/16 08:23:10;;;;;;;20.50;17.30;;;4.40;99.90;;;;;;10553346;28;20656;-79
2023/02/16 08:28:13;;;;;;;44.80;20.80;;;4.40;99.90;;;;;;10501714;28;20246;-79
2023/02/16 08:33:17;;;;;;;31.33;20.00;;;4.50;99.90;;;;;;10497294;28;20226;-79
2023/02/16 08:38:19;;;;;;;27.03;18.43;;;4.60;99.90;;;;;;10539233;28;20642;-79
2023/02/16 08:43:22;;;;;;;30.27;18.50;;;4.80;99.90;;;;;;10489486;28;20278;-79
2023/02/16 08:48:27;;;;;;;21.33;17.40;;;4.90;99.90;;;;;;10530838;28;20580;-79
2023/02/16 08:53:32;;;;;;;24.83;18.20;;;5.10;99.90;;;;;;10539207;28;20265;-79
2023/02/16 08:58:35;;;;;;;21.70;17.60;;;5.30;99.90;;;;;;10497713;28;20228;-79
2023/02/16 09:03:41;;;;;;;21.43;18.60;;;5.50;99.90;;;;;;10489982;28;20572;-79
2023/02/16 09:08:45;;;;;;;22.20;19.53;;;5.60;99.90;;;;;;10524224;28;20412;-79
2023/02/16 09:13:47;;;;;;;21.27;19.27;;;5.80;99.90;;;;;;10540272;28;20192;-79
2023/02/16 09:18:51;;;;;;;21.50;19.00;;;6.00;99.90;;;;;;10493740;28;20219;-79
2023/02/16 09:23:56;;;;;;;24.67;21.20;;;6.20;99.90;;;;;;10514570;28;20201;-79
2023/02/16 09:28:59;;;;;;;23.20;19.80;;;6.50;99.90;;;;;;10504078;28;20239;-79
2023/02/16 09:34:05;;;;;;;23.20;20.70;;;6.60;99.90;;;;;;10497852;28;20286;-80
2023/02/16 09:39:07;;;;;;;22.70;19.20;;;6.90;99.90;;;;;;10543163;28;20236;-80
2023/02/16 09:44:20;;;;;;;28.97;22.87;;;7.10;99.90;;;;;;10491965;28;20219;-79
2023/02/16 09:49:29;;;;;;;25.50;20.20;;;7.30;99.90;;;;;;10494458;28;20192;-80
2023/02/16 09:54:41;;;;;;;24.47;21.87;;;7.50;99.90;;;;;;10510315;28;20223;-80
2023/02/16 09:59:50;;;;;;;15.43;13.23;;;7.70;99.90;;;;;;10515355;28;20215;-80
2023/02/16 10:05:16;;;;;;;20.23;14.43;;;8.10;98.40;;;;;;10494091;28;20222;-80
2023/02/16 10:10:21;;;;;;;15.63;13.30;;;8.40;98.70;;;;;;10530010;28;20203;-80
2023/02/16 10:15:26;;;;;;;11.50;10.30;;;8.50;99.00;;;;;;10527279;28;20240;-80
2023/02/16 10:20:34;;;;;;;11.10;9.70;;;8.50;98.10;;;;;;10517997;28;20221;-80
2023/02/16 10:25:44;;;;;;;13.43;10.17;;;8.60;97.80;;;;;;10507873;28;20714;-80
2023/02/16 10:30:50;;;;;;;12.67;10.63;;;8.70;96.80;;;;;;10523005;28;20211;-80
2023/02/16 10:36:00;;;;;;;11.00;9.57;;;8.80;97.60;;;;;;10546354;28;20227;-80
2023/02/16 10:41:12;;;;;;;12.20;10.90;;;8.70;98.00;;;;;;10511708;28;20563;-81
2023/02/16 10:46:21;;;;;;;13.00;11.40;;;8.70;98.40;;;;;;10508432;28;20232;-81
2023/02/16 10:51:27;;;;;;;12.50;10.47;;;8.60;98.00;;;;;;10523331;28;20657;-80
2023/02/16 10:56:45;;;;;;;14.90;9.60;;;8.50;97.60;;;;;;10464711;28;20215;-80
2023/02/16 11:01:49;;;;;;;9.50;8.60;;;8.60;97.10;;;;;;10516761;28;20285;-80
2023/02/16 11:07:04;;;;;;;9.30;8.40;;;8.60;97.60;;;;;;10529093;28;20204;-80
2023/02/16 11:12:23;;;;;;;14.70;8.90;;;8.60;96.80;;;;;;10497272;28;20285;-80
2023/02/16 11:17:26;;;;;;;7.90;7.20;;;8.70;96.90;;;;;;10567198;28;20240;-80
2023/02/16 11:22:36;;;;;;;9.27;8.37;;;8.70;96.80;;;;;;10496094;28;20186;-80
2023/02/16 11:27:50;;;;;;;9.70;7.57;;;8.70;97.80;;;;;;10472178;28;20216;-80
2023/02/16 11:32:54;;;;;;;8.70;7.80;;;8.80;96.70;;;;;;10457945;28;20196;-81
2023/02/16 11:37:57;;;;;;;7.00;5.80;;;8.80;97.20;;;;;;10545155;28;20218;-81
2023/02/16 11:43:01;;;;;;;8.07;7.03;;;8.90;95.80;;;;;;10527560;28;20228;-81
2023/02/16 11:48:07;;;;;;;10.50;9.50;;;9.00;96.40;;;;;;10527158;28;20259;-81
2023/02/16 11:53:24;;;;;;;13.90;11.80;;;9.10;97.00;;;;;;10520718;28;20280;-80
2023/02/16 11:58:28;;;;;;;19.83;14.30;;;9.10;97.00;;;;;;10543958;28;20292;-81
2023/02/16 12:03:51;;;;;;;17.20;12.90;;;9.20;96.90;;;;;;10500664;28;20189;-81
2023/02/16 12:09:08;;;;;;;14.03;11.97;;;9.50;95.10;;;;;;10538721;28;20227;-79
2023/02/16 12:14:28;;;;;;;20.00;12.80;;;9.80;95.80;;;;;;10468069;28;20196;-81
2023/02/16 12:19:40;;;;;;;15.83;13.20;;;9.80;95.90;;;;;;10518830;28;20683;-80
2023/02/16 12:24:53;;;;;;;13.60;11.17;;;9.90;96.40;;;;;;10495587;28;20216;-81
2023/02/16 12:30:02;;;;;;;14.00;10.47;;;9.90;96.40;;;;;;10519825;28;20220;-81
2023/02/16 12:35:21;;;;;;;13.10;10.63;;;9.90;96.30;;;;;;10495064;28;20228;-80
2023/02/16 12:40:33;;;;;;;11.63;10.40;;;10.10;94.80;;;;;;10538565;28;20211;-81
2023/02/16 12:45:40;;;;;;;13.23;10.13;;;10.20;95.40;;;;;;10503687;28;20280;-81
2023/02/16 12:50:44;;;;;;;11.23;10.13;;;10.20;96.00;;;;;;10507009;28;20198;-80
2023/02/16 12:55:53;;;;;;;12.40;9.57;;;10.20;96.30;;;;;;10518467;28;20242;-80
2023/02/16 13:01:00;;;;;;;13.10;11.10;;;10.30;95.70;;;;;;10520133;28;20271;-82
2023/02/16 13:06:21;;;;;;;14.53;11.80;;;10.30;96.30;;;;;;10459365;28;20226;-81
2023/02/16 13:11:34;;;;;;;12.57;10.33;;;10.20;95.90;;;;;;10470782;28;20635;-81
2023/02/16 13:16:42;;;;;;;10.00;9.00;;;10.20;94.20;;;;;;10466975;28;20227;-80
2023/02/16 13:22:08;;;;;;;12.67;9.93;;;10.40;95.10;;;;;;10475164;28;20211;-79
2023/02/16 13:27:28;;;;;;;11.40;10.30;;;10.40;95.10;;;;;;10480351;28;20689;-81
2023/02/16 13:32:56;;;;;;;15.20;9.60;;;10.30;95.90;;;;;;10509669;28;20613;-80
2023/02/16 13:38:17;;;;;;;13.13;9.67;;;10.40;94.70;;;;;;10501470;28;20311;-82
2023/02/16 13:43:30;;;;;;;13.07;9.50;;;10.50;95.00;;;;;;10458010;28;20198;-80
2023/02/16 13:48:39;;;;;;;11.03;9.30;;;10.60;93.90;;;;;;10525145;28;20231;-83
2023/02/16 13:53:43;;;;;;;13.80;11.63;;;10.80;94.20;;;;;;10490543;28;20333;-83
2023/02/16 13:58:46;;;;;;;11.83;10.60;;;10.90;94.40;;;;;;10531673;28;20233;-81
2023/02/16 14:03:48;;;;;;;13.73;10.70;;;11.00;95.20;;;;;;10484823;28;20209;-83
2023/02/16 14:09:49;;;;;;;12.23;10.50;;;11.00;95.20;;;;;;10517457;28;20274;-83
2023/02/16 14:15:01;;;;;;;9.83;8.83;;;11.10;94.10;;;;;;10521304;28;20228;-80
2023/02/16 14:20:24;;;;;;;12.00;10.20;;;11.20;95.00;;;;;;10508174;28;20217;-80
2023/02/16 14:25:38;;;;;;;13.53;10.23;;;11.20;95.20;;;;;;10469281;28;20258;-81
2023/02/16 14:30:48;;;;;;;12.00;10.30;;;11.30;94.90;;;;;;10457004;28;20195;-79
2023/02/16 14:36:07;;;;;;;11.90;9.87;;;11.50;93.50;;;;;;10525514;28;20232;-81
2023/02/16 14:41:25;;;;;;;13.20;11.53;;;11.60;94.60;;;;;;10525675;28;20288;-80
2023/02/16 14:46:39;;;;;;;10.80;9.73;;;11.60;95.10;;;;;;10528535;28;20296;-79
2023/02/16 14:52:16;;;;;;;14.93;12.83;;;11.50;95.50;;;;;;10476494;28;20193;-81
2023/02/16 14:57:24;;;;;;;12.40;10.50;;;11.50;95.20;;;;;;10525659;28;20219;-81
2023/02/16 15:02:29;;;;;;;12.63;10.70;;;11.40;95.40;;;;;;10523874;28;20204;-81
2023/02/16 15:07:31;;;;;;;18.07;12.17;;;11.40;95.90;;;;;;10507035;28;20239;-81
2023/02/16 15:12:36;;;;;;;21.40;12.97;;;11.40;95.60;;;;;;10547952;28;20636;-81
2023/02/16 15:17:40;;;;;;;17.80;12.40;;;11.40;95.50;;;;;;10513520;28;20262;-81
2023/02/16 15:22:49;;;;;;;14.93;10.37;;;11.30;96.10;;;;;;10547857;28;20491;-81
2023/02/16 15:27:59;;;;;;;16.70;11.10;;;11.40;94.30;;;;;;10526815;28;20700;-81
2023/02/16 15:33:04;;;;;;;16.80;10.50;;;11.60;94.70;;;;;;10544810;28;20199;-81
2023/02/16 15:38:09;;;;;;;20.03;10.40;;;11.80;95.50;;;;;;10527994;28;20216;-81
2023/02/16 15:43:29;;;;;;;13.10;9.50;;;11.80;95.70;;;;;;10530875;28;20224;-81
2023/02/16 15:48:33;;;;;;;16.80;10.30;;;11.90;96.30;;;;;;10509661;28;20269;-83
2023/02/16 15:53:43;;;;;;;21.60;9.07;;;11.90;96.40;;;;;;10538229;28;20188;-82
2023/02/16 15:58:47;;;;;;;13.63;7.60;;;11.90;96.00;;;;;;10531120;28;20225;-83
2023/02/16 16:03:49;;;;;;;8.23;6.37;;;11.90;95.30;;;;;;10503082;28;20201;-79
2023/02/16 16:08:51;;;;;;;12.80;7.17;;;11.90;94.40;;;;;;10476905;28;20894;-82
2023/02/16 16:13:55;;;;;;;7.03;5.33;;;11.90;94.90;;;;;;10469148;28;20201;-82
2023/02/16 16:19:06;;;;;;;14.73;6.13;;;11.80;94.30;;;;;;10479164;28;20227;-83
2023/02/16 16:24:10;;;;;;;13.83;5.30;;;11.80;93.40;;;;;;10484476;28;20243;-82
2023/02/16 16:29:33;;;;;;;6.40;4.23;;;11.80;92.50;;;;;;10443715;28;20669;-82
2023/02/16 16:34:38;;;;;;;6.30;5.00;;;11.80;92.50;;;;;;10478975;28;20582;-79
2023/02/16 16:39:41;;;;;;;5.10;4.60;;;11.80;93.30;;;;;;10459269;28;20231;-82
2023/02/16 16:44:54;;;;;;;7.03;5.67;;;11.80;93.70;;;;;;10487691;28;20556;-82
2023/02/16 16:49:59;;;;;;;7.80;5.60;;;11.80;93.60;;;;;;10470797;28;20192;-82
2023/02/16 16:55:02;;;;;;;13.40;7.97;;;11.70;93.60;;;;;;10468005;28;20256;-82
2023/02/16 17:00:10;;;;;;;11.97;6.43;;;11.70;93.90;;;;;;10481661;28;20754;-81
2023/02/16 17:05:12;;;;;;;10.57;6.20;;;11.60;94.30;;;;;;10489384;28;20689;-81
2023/02/16 17:10:15;;;;;;;14.10;6.50;;;11.50;94.40;;;;;;10441894;28;20658;-81
2023/02/16 17:15:37;;;;;;;10.40;5.57;;;11.40;94.70;;;;;;10479415;28;20643;-80
2023/02/16 17:20:40;;;;;;;10.83;5.30;;;11.30;94.80;;;;;;10488126;28;20686;-82
2023/02/16 17:25:43;;;;;;;6.53;5.50;;;11.20;94.80;;;;;;10440013;28;20225;-80
2023/02/16 17:30:46;;;;;;;12.67;6.13;;;11.20;94.90;;;;;;10462165;28;20224;-80
2023/02/16 17:35:48;;;;;;;6.77;5.90;;;11.20;94.70;;;;;;10466529;28;20580;-81
2023/02/16 17:40:52;;;;;;;7.60;4.97;;;11.10;94.90;;;;;;10500756;28;20299;-81
2023/02/16 17:45:58;;;;;;;6.43;4.97;;;11.10;94.50;;;;;;10519186;28;20235;-80
2023/02/16 17:51:00;;;;;;;5.40;5.00;;;11.00;94.60;;;;;;10513790;28;20689;-80
2023/02/16 17:56:02;;;;;;;7.50;5.07;;;11.00;94.50;;;;;;10502502;28;20224;-81
2023/02/16 18:01:06;;;;;;;6.50;5.83;;;11.00;94.40;;;;;;10512888;28;20216;-80
2023/02/16 18:06:11;;;;;;;9.43;6.60;;;11.00;94.40;;;;;;10511117;28;20314;-81
2023/02/16 18:11:13;;;;;;;11.83;7.37;;;11.00;94.30;;;;;;10477892;28;20515;-81
2023/02/16 18:16:20;;;;;;;11.90;8.00;;;11.00;93.80;;;;;;10478153;28;20256;-81
2023/02/16 18:21:22;;;;;;;15.63;13.10;;;11.00;93.80;;;;;;10480488;28;20252;-80
2023/02/16 18:26:24;;;;;;;14.43;12.90;;;11.00;94.40;;;;;;10477741;28;20220;-81
2023/02/16 18:31:28;;;;;;;20.40;13.90;;;11.00;94.40;;;;;;10519609;28;20598;-80
2023/02/16 18:36:30;;;;;;;19.10;14.53;;;11.10;94.40;;;;;;10530927;28;20220;-81
2023/02/16 18:41:32;;;;;;;17.60;15.50;;;11.00;94.70;;;;;;10482793;28;20217;-81
2023/02/16 18:46:35;;;;;;;14.43;10.97;;;10.90;94.90;;;;;;10526366;28;20341;-81
2023/02/16 18:51:37;;;;;;;13.80;11.03;;;10.90;95.00;;;;;;10514505;28;20678;-81
2023/02/16 18:56:40;;;;;;;12.53;10.53;;;10.90;95.20;;;;;;10533900;28;20227;-80
2023/02/16 19:01:43;;;;;;;17.30;13.93;;;10.80;95.40;;;;;;10474232;28;20246;-80
2023/02/16 19:06:45;;;;;;;38.57;24.20;;;10.90;95.00;;;;;;10542207;28;20709;-80
2023/02/16 19:11:47;;;;;;;47.40;30.93;;;10.80;95.00;;;;;;10509793;28;20208;-80
2023/02/16 19:16:51;;;;;;;14.03;11.97;;;10.80;95.20;;;;;;10538435;28;20636;-82
2023/02/16 19:21:53;;;;;;;17.80;15.53;;;10.80;95.90;;;;;;10542393;28;20211;-82
2023/02/16 19:26:55;;;;;;;10.93;9.83;;;10.70;96.20;;;;;;10544976;28;20220;-80
2023/02/16 19:31:59;;;;;;;9.60;8.60;;;10.60;96.50;;;;;;10545222;28;20195;-82
2023/02/16 19:37:01;;;;;;;10.13;7.00;;;10.60;96.70;;;;;;10580144;28;20247;-81
2023/02/16 19:42:03;;;;;;;7.20;6.33;;;10.50;97.10;;;;;;10574135;28;20217;-79
2023/02/16 19:47:07;;;;;;;7.20;6.50;;;10.60;95.40;;;;;;10574917;28;20746;-80
2023/02/16 19:52:10;;;;;;;6.67;6.00;;;10.60;95.00;;;;;;10557140;28;20227;-81
2023/02/16 19:57:12;;;;;;;7.20;6.60;;;10.80;95.30;;;;;;10557222;28;20216;-81
2023/02/16 20:02:15;;;;;;;7.03;6.13;;;10.90;95.10;;;;;;10576434;28;20223;-80
2023/02/16 20:07:17;;;;;;;8.03;6.10;;;11.00;94.80;;;;;;10506763;28;20228;-80
2023/02/16 20:12:20;;;;;;;8.67;6.70;;;11.00;95.50;;;;;;10546185;28;20192;-81
2023/02/16 20:17:23;;;;;;;7.50;6.80;;;11.10;95.70;;;;;;10516593;22;20263;-78
2023/02/16 20:22:26;;;;;;;6.90;6.30;;;11.10;96.30;;;;;;10463705;28;20213;-77
2023/02/16 20:27:28;;;;;;;7.80;7.00;;;11.10;95.80;;;;;;10465559;28;20266;-77
2023/02/16 20:32:32;;;;;;;12.10;8.17;;;11.10;95.40;;;;;;10495354;28;20185;-77
2023/02/16 20:37:35;;;;;;;8.43;7.63;;;11.00;95.70;;;;;;10483223;28;20589;-77
2023/02/16 20:42:37;;;;;;;6.97;6.37;;;11.00;96.40;;;;;;10419950;28;20228;-77
2023/02/16 20:47:40;;;;;;;9.40;7.40;;;10.90;96.60;;;;;;10452670;28;20222;-79
2023/02/16 20:52:43;;;;;;;10.47;7.97;;;10.90;97.20;;;;;;10475981;28;20193;-78
2023/02/16 20:57:45;;;;;;;9.43;8.03;;;10.90;97.80;;;;;;10465108;28;20279;-78
2023/02/16 21:02:48;;;;;;;8.00;7.30;;;10.80;97.80;;;;;;10463895;28;20258;-77
2023/02/16 21:07:50;;;;;;;7.60;6.80;;;10.80;98.40;;;;;;10466817;28;20216;-78
2023/02/16 21:12:53;;;;;;;7.27;6.57;;;10.80;98.30;;;;;;10457125;28;20728;-78
2023/02/16 21:17:56;;;;;;;7.40;6.70;;;10.80;95.90;;;;;;10431697;28;20641;-79
2023/02/16 21:23:02;;;;;;;6.83;6.27;;;10.90;96.20;;;;;;10444319;28;20225;-78
2023/02/16 21:28:07;;;;;;;8.53;7.20;;;11.00;95.50;;;;;;10464454;28;20677;-76
2023/02/16 21:33:10;;;;;;;5.90;5.50;;;11.00;95.00;;;;;;10464074;28;20272;-75
2023/02/16 21:38:12;;;;;;;9.83;7.43;;;11.10;94.00;;;;;;10462339;28;20274;-78
2023/02/16 21:43:14;;;;;;;5.50;5.00;;;11.20;94.40;;;;;;10461622;28;20268;-77
2023/02/16 21:53:37;;;;;;;6.30;5.70;;;11.30;93.50;;;;;;10461052;28;20202;-77
2023/02/16 21:58:40;;;;;;;5.53;5.13;;;11.40;94.00;;;;;;10461681;28;20264;-76
2023/02/16 22:03:43;;;;;;;6.50;5.60;;;11.40;93.00;;;;;;10444270;28;20653;-77
2023/02/16 22:08:45;;;;;;;7.03;6.00;;;11.40;92.70;;;;;;10461917;28;20206;-76
2023/02/16 22:13:49;;;;;;;8.90;6.00;;;11.40;93.30;;;;;;10460690;28;20280;-76
2023/02/16 22:18:57;;;;;;;5.90;5.00;;;11.40;94.40;;;;;;10460189;28;20324;-77
2023/02/16 22:24:00;;;;;;;6.63;5.60;;;11.40;93.30;;;;;;10460544;28;20205;-76
2023/02/16 22:29:04;;;;;;;6.27;5.33;;;11.30;94.10;;;;;;10463795;28;20245;-78
2023/02/16 22:34:39;;;;;;;5.43;4.97;;;11.30;93.90;;;;;;10470140;28;20539;-77
2023/02/16 22:39:42;;;;;;;6.40;5.80;;;11.30;93.50;;;;;;10458060;28;20263;-77
2023/02/16 22:44:44;;;;;;;6.13;5.63;;;11.30;93.10;;;;;;10457086;28;20214;-77
2023/02/16 22:49:50;;;;;;;6.47;5.70;;;11.30;93.40;;;;;;10459577;28;20190;-78
2023/02/16 22:54:53;;;;;;;6.33;5.73;;;11.30;93.50;;;;;;10438837;28;20206;-77
2023/02/16 22:59:55;;;;;;;6.67;5.80;;;11.30;93.50;;;;;;10464551;28;20324;-76
2023/02/16 23:04:59;;;;;;;7.80;5.97;;;11.30;93.10;;;;;;10459271;28;20716;-76
2023/02/16 23:10:03;;;;;;;10.30;7.60;;;11.30;93.40;;;;;;10459810;28;20189;-77
2023/02/16 23:15:05;;;;;;;6.47;5.43;;;11.30;93.30;;;;;;10457662;28;20251;-77
2023/02/16 23:20:09;;;;;;;5.37;4.90;;;11.30;93.20;;;;;;10470949;28;20674;-77
2023/02/16 23:30:32;;;;;;;6.20;5.70;;;11.30;92.70;;;;;;10455602;28;20205;-76
2023/02/16 23:35:34;;;;;;;6.73;6.13;;;11.20;92.60;;;;;;10463018;28;20222;-77
2023/02/16 23:40:38;;;;;;;6.17;5.57;;;11.20;92.60;;;;;;10480200;28;20248;-77
2023/02/16 23:45:40;;;;;;;6.37;5.77;;;11.20;92.20;;;;;;10466861;28;20217;-77
2023/02/16 23:50:42;;;;;;;7.03;6.10;;;11.20;92.30;;;;;;10423723;28;20202;-78
2023/02/16 23:55:45;;;;;;;5.83;5.33;;;11.10;92.40;;;;;;10440727;28;20264;-77
